Aérodrome :
LOGIN :

S'inscrire | Disclaimer

   EN    FR    IT 

 










Légende :    VFR   VFR Marginal   IFR   IFR Intensif   IFR Très Intensif
Visi : 
Plafond : 
>= 8 km
>= 3000ft
5 à 8 km
1000 à 3000 ft
1500m à 5 km
500 à 1000 ft
800 à 1500m
200 à 500 ft
< 800m
< 200 ft
Symboles :   Orages  Brouillard  Fortes neiges  Fortes précipitations  Vent > 20 kt
SIGMETs :   Divers  Orages  Givrage  Turbulence  Onde Orograph.  Cendres Volcan.







- Altitude de l'aérodrome : 870 ft
- Code IATA : ETZ
- Voir les cartes d'approche


LFJL - Metz Nancy Lorraine

DERNIER METAR :
  • 211000Z AUTO VRB03KT 9999 NCD 19/09 Q1025 NOSIG

METARs EXPIRÉS :
  • 210930Z AUTO VRB02KT 9999 NCD 18/09 Q1025 NOSIG
  • 210900Z AUTO VRB01KT 9999 NCD 18/11 Q1025 NOSIG
  • 210830Z AUTO VRB03KT 9999 NCD 17/11 Q1025 NOSIG
  • 210800Z AUTO 25003KT 210V290 9999 NCD 16/11 Q1025 NOSIG
  • 210730Z AUTO 24004KT 9999 NCD 15/11 Q1025 NOSIG

TAF TAF LFJL
Valide du 21 à 06h jusqu'au 22 à 06h UTC


210500Z 2106/2206 19006KT CAVOK
BECMG 2121/2124 OVC035
PROB30
TEMPO 2106/2206 -RA
Pas de NOTAMs connus pour ce terrain.



MET'MAP, la Météo Aéronautique d'un coup d'oeil ! - Copyright ORBIFLY Décembre 2007 - Disclaimer

ORBIFLY MET'MAP TEAM :

Programmation & Développement : Alexandra Zaïnal
Conception & Développement : Baudouin d'Aumeries
Co-Programmation & Développement : Marc-Olivier Méhu
Soutien technique & logistique : Manuel Goepfert

Contact : metmap@orbifly.com




SOURCES & CREDITS :

   NOAA